sensor_id;sensor_type;location;lat;lon;timestamp;P1;durP1;ratioP1;P2;durP2;ratioP2
38318;SDS011;24121;53.536;10.224;2024-02-28T07:22:43;21.95;;;13.55;;
38318;SDS011;24121;53.536;10.224;2024-02-28T07:25:08;21.15;;;14.15;;
38318;SDS011;24121;53.536;10.224;2024-02-28T07:27:33;22.02;;;14.93;;
38318;SDS011;24121;53.536;10.224;2024-02-28T07:29:59;21.58;;;14.30;;
38318;SDS011;24121;53.536;10.224;2024-02-28T07:32:24;21.87;;;14.73;;
38318;SDS011;24121;53.536;10.224;2024-02-28T07:34:49;23.37;;;15.53;;
38318;SDS011;24121;53.536;10.224;2024-02-28T07:37:14;21.67;;;14.82;;
38318;SDS011;24121;53.536;10.224;2024-02-28T07:39:39;23.13;;;14.90;;
38318;SDS011;24121;53.536;10.224;2024-02-28T07:42:05;20.50;;;13.97;;
38318;SDS011;24121;53.536;10.224;2024-02-28T07:44:30;19.10;;;13.77;;
38318;SDS011;24121;53.536;10.224;2024-02-28T07:46:56;20.42;;;13.52;;
38318;SDS011;24121;53.536;10.224;2024-02-28T07:49:21;21.13;;;14.07;;
38318;SDS011;24121;53.536;10.224;2024-02-28T07:51:46;19.30;;;13.47;;
38318;SDS011;24121;53.536;10.224;2024-02-28T07:54:11;20.48;;;13.75;;
38318;SDS011;24121;53.536;10.224;2024-02-28T07:56:37;20.08;;;13.73;;
38318;SDS011;24121;53.536;10.224;2024-02-28T07:59:02;22.80;;;15.17;;
38318;SDS011;24121;53.536;10.224;2024-02-28T08:01:27;17.07;;;12.50;;
38318;SDS011;24121;53.536;10.224;2024-02-28T08:03:52;19.57;;;13.30;;
38318;SDS011;24121;53.536;10.224;2024-02-28T08:06:18;19.63;;;13.65;;
38318;SDS011;24121;53.536;10.224;2024-02-28T08:08:44;18.45;;;13.48;;
38318;SDS011;24121;53.536;10.224;2024-02-28T08:11:10;19.30;;;13.30;;
38318;SDS011;24121;53.536;10.224;2024-02-28T08:13:35;18.30;;;13.30;;
38318;SDS011;24121;53.536;10.224;2024-02-28T08:16:00;20.37;;;13.07;;
38318;SDS011;24121;53.536;10.224;2024-02-28T08:18:26;17.33;;;13.40;;
38318;SDS011;24121;53.536;10.224;2024-02-28T08:20:53;17.73;;;12.95;;
38318;SDS011;24121;53.536;10.224;2024-02-28T08:23:21;18.90;;;12.82;;
38318;SDS011;24121;53.536;10.224;2024-02-28T08:25:46;20.98;;;13.95;;
38318;SDS011;24121;53.536;10.224;2024-02-28T08:28:11;19.08;;;13.68;;
38318;SDS011;24121;53.536;10.224;2024-02-28T08:30:37;19.97;;;13.87;;
38318;SDS011;24121;53.536;10.224;2024-02-28T08:33:02;18.67;;;13.90;;
38318;SDS011;24121;53.536;10.224;2024-02-28T08:35:27;20.65;;;13.68;;
38318;SDS011;24121;53.536;10.224;2024-02-28T08:37:53;19.85;;;13.80;;
38318;SDS011;24121;53.536;10.224;2024-02-28T08:40:18;24.00;;;15.57;;
38318;SDS011;24121;53.536;10.224;2024-02-28T08:42:43;19.83;;;14.57;;
38318;SDS011;24121;53.536;10.224;2024-02-28T08:45:09;20.33;;;14.03;;
38318;SDS011;24121;53.536;10.224;2024-02-28T08:47:34;24.05;;;14.48;;
38318;SDS011;24121;53.536;10.224;2024-02-28T08:49:59;22.00;;;15.37;;
38318;SDS011;24121;53.536;10.224;2024-02-28T08:52:24;24.13;;;16.20;;
38318;SDS011;24121;53.536;10.224;2024-02-28T08:54:49;21.63;;;15.30;;
38318;SDS011;24121;53.536;10.224;2024-02-28T08:57:15;22.02;;;15.90;;
38318;SDS011;24121;53.536;10.224;2024-02-28T08:59:40;21.52;;;14.73;;
38318;SDS011;24121;53.536;10.224;2024-02-28T09:02:06;21.90;;;16.10;;
38318;SDS011;24121;53.536;10.224;2024-02-28T09:04:31;21.05;;;15.20;;
38318;SDS011;24121;53.536;10.224;2024-02-28T09:06:57;22.23;;;15.10;;
38318;SDS011;24121;53.536;10.224;2024-02-28T09:09:22;21.52;;;15.48;;
38318;SDS011;24121;53.536;10.224;2024-02-28T09:11:47;22.95;;;16.05;;
38318;SDS011;24121;53.536;10.224;2024-02-28T09:14:12;23.20;;;16.25;;
38318;SDS011;24121;53.536;10.224;2024-02-28T09:16:37;27.30;;;17.87;;
38318;SDS011;24121;53.536;10.224;2024-02-28T09:19:03;26.90;;;18.45;;
38318;SDS011;24121;53.536;10.224;2024-02-28T09:21:29;26.38;;;18.52;;
38318;SDS011;24121;53.536;10.224;2024-02-28T09:23:54;28.13;;;18.30;;
38318;SDS011;24121;53.536;10.224;2024-02-28T09:26:19;28.70;;;18.30;;
38318;SDS011;24121;53.536;10.224;2024-02-28T09:28:44;26.15;;;18.33;;
38318;SDS011;24121;53.536;10.224;2024-02-28T09:31:10;26.95;;;18.45;;
38318;SDS011;24121;53.536;10.224;2024-02-28T09:33:35;28.43;;;18.40;;
38318;SDS011;24121;53.536;10.224;2024-02-28T09:36:02;29.08;;;19.10;;
38318;SDS011;24121;53.536;10.224;2024-02-28T09:38:27;27.30;;;18.58;;
38318;SDS011;24121;53.536;10.224;2024-02-28T09:40:54;31.10;;;20.17;;
38318;SDS011;24121;53.536;10.224;2024-02-28T09:43:21;27.43;;;19.43;;
38318;SDS011;24121;53.536;10.224;2024-02-28T09:45:49;27.45;;;19.35;;
38318;SDS011;24121;53.536;10.224;2024-02-28T09:48:14;28.55;;;20.45;;
38318;SDS011;24121;53.536;10.224;2024-02-28T09:50:41;32.00;;;21.30;;
38318;SDS011;24121;53.536;10.224;2024-02-28T09:53:07;28.10;;;19.25;;
38318;SDS011;24121;53.536;10.224;2024-02-28T09:55:32;28.42;;;19.52;;
38318;SDS011;24121;53.536;10.224;2024-02-28T09:57:57;27.57;;;20.13;;
38318;SDS011;24121;53.536;10.224;2024-02-28T10:00:23;30.40;;;17.98;;
38318;SDS011;24121;53.536;10.224;2024-02-28T10:02:51;29.30;;;21.15;;
38318;SDS011;24121;53.536;10.224;2024-02-28T10:07:47;27.08;;;19.48;;
38318;SDS011;24121;53.536;10.224;2024-02-28T10:10:12;31.70;;;21.85;;
38318;SDS011;24121;53.536;10.224;2024-02-28T10:12:40;29.27;;;20.83;;
38318;SDS011;24121;53.536;10.224;2024-02-28T10:15:06;30.58;;;20.20;;
38318;SDS011;24121;53.536;10.224;2024-02-28T10:17:31;31.15;;;21.50;;
38318;SDS011;24121;53.536;10.224;2024-02-28T10:19:57;29.93;;;19.90;;
38318;SDS011;24121;53.536;10.224;2024-02-28T10:22:23;29.63;;;20.67;;
38318;SDS011;24121;53.536;10.224;2024-02-28T10:24:49;28.88;;;20.55;;
38318;SDS011;24121;53.536;10.224;2024-02-28T10:27:15;29.87;;;20.47;;
38318;SDS011;24121;53.536;10.224;2024-02-28T10:29:40;27.63;;;19.88;;
38318;SDS011;24121;53.536;10.224;2024-02-28T10:32:09;27.35;;;19.80;;
38318;SDS011;24121;53.536;10.224;2024-02-28T10:34:34;33.85;;;20.67;;
38318;SDS011;24121;53.536;10.224;2024-02-28T10:36:59;30.17;;;20.83;;
38318;SDS011;24121;53.536;10.224;2024-02-28T10:39:26;28.55;;;20.27;;
38318;SDS011;24121;53.536;10.224;2024-02-28T10:41:51;30.27;;;20.10;;
38318;SDS011;24121;53.536;10.224;2024-02-28T10:44:17;28.42;;;20.65;;
38318;SDS011;24121;53.536;10.224;2024-02-28T10:46:42;29.88;;;21.13;;
38318;SDS011;24121;53.536;10.224;2024-02-28T10:49:09;29.42;;;20.10;;
38318;SDS011;24121;53.536;10.224;2024-02-28T10:51:35;28.88;;;19.35;;
38318;SDS011;24121;53.536;10.224;2024-02-28T10:54:09;28.65;;;19.55;;
38318;SDS011;24121;53.536;10.224;2024-02-28T10:56:38;29.35;;;19.27;;
38318;SDS011;24121;53.536;10.224;2024-02-28T10:59:07;24.17;;;17.90;;
38318;SDS011;24121;53.536;10.224;2024-02-28T11:01:34;26.17;;;17.80;;
38318;SDS011;24121;53.536;10.224;2024-02-28T11:04:00;22.42;;;16.60;;
38318;SDS011;24121;53.536;10.224;2024-02-28T11:06:25;25.87;;;17.60;;
38318;SDS011;24121;53.536;10.224;2024-02-28T11:08:51;24.10;;;15.73;;
38318;SDS011;24121;53.536;10.224;2024-02-28T11:11:19;26.05;;;17.23;;
38318;SDS011;24121;53.536;10.224;2024-02-28T11:13:51;24.85;;;16.63;;
38318;SDS011;24121;53.536;10.224;2024-02-28T11:16:17;20.67;;;15.03;;
38318;SDS011;24121;53.536;10.224;2024-02-28T11:18:48;22.70;;;14.50;;
38318;SDS011;24121;53.536;10.224;2024-02-28T11:21:17;21.35;;;14.75;;
38318;SDS011;24121;53.536;10.224;2024-02-28T11:23:45;22.93;;;15.73;;
38318;SDS011;24121;53.536;10.224;2024-02-28T11:26:11;21.27;;;14.90;;
38318;SDS011;24121;53.536;10.224;2024-02-28T11:28:36;22.02;;;15.00;;
38318;SDS011;24121;53.536;10.224;2024-02-28T11:31:02;19.10;;;14.00;;
38318;SDS011;24121;53.536;10.224;2024-02-28T11:33:27;20.73;;;15.35;;
38318;SDS011;24121;53.536;10.224;2024-02-28T11:35:58;22.23;;;15.97;;
38318;SDS011;24121;53.536;10.224;2024-02-28T11:38:24;22.15;;;15.77;;
38318;SDS011;24121;53.536;10.224;2024-02-28T11:40:49;23.23;;;16.20;;
38318;SDS011;24121;53.536;10.224;2024-02-28T11:43:15;22.13;;;15.30;;
38318;SDS011;24121;53.536;10.224;2024-02-28T11:45:40;23.37;;;16.27;;
38318;SDS011;24121;53.536;10.224;2024-02-28T11:48:06;22.30;;;16.05;;
38318;SDS011;24121;53.536;10.224;2024-02-28T11:50:31;22.40;;;15.95;;
38318;SDS011;24121;53.536;10.224;2024-02-28T11:52:56;25.17;;;16.30;;
38318;SDS011;24121;53.536;10.224;2024-02-28T11:55:24;23.80;;;15.33;;
38318;SDS011;24121;53.536;10.224;2024-02-28T11:57:49;21.92;;;15.52;;
38318;SDS011;24121;53.536;10.224;2024-02-28T12:00:15;24.00;;;16.92;;
38318;SDS011;24121;53.536;10.224;2024-02-28T12:02:40;25.92;;;15.95;;
38318;SDS011;24121;53.536;10.224;2024-02-28T12:05:06;26.20;;;17.50;;
38318;SDS011;24121;53.536;10.224;2024-02-28T12:07:31;24.42;;;17.65;;
38318;SDS011;24121;53.536;10.224;2024-02-28T12:09:57;24.52;;;17.33;;
38318;SDS011;24121;53.536;10.224;2024-02-28T12:12:22;26.73;;;17.15;;
38318;SDS011;24121;53.536;10.224;2024-02-28T12:14:48;26.45;;;17.42;;
38318;SDS011;24121;53.536;10.224;2024-02-28T12:17:16;23.53;;;16.97;;
38318;SDS011;24121;53.536;10.224;2024-02-28T12:19:41;22.88;;;16.65;;
38318;SDS011;24121;53.536;10.224;2024-02-28T12:22:07;24.60;;;17.42;;
38318;SDS011;24121;53.536;10.224;2024-02-28T12:24:32;22.73;;;16.08;;
38318;SDS011;24121;53.536;10.224;2024-02-28T12:26:58;24.27;;;16.13;;
38318;SDS011;24121;53.536;10.224;2024-02-28T12:29:23;23.43;;;16.27;;
38318;SDS011;24121;53.536;10.224;2024-02-28T12:31:48;26.05;;;17.17;;
38318;SDS011;24121;53.536;10.224;2024-02-28T12:34:13;22.58;;;15.25;;
38318;SDS011;24121;53.536;10.224;2024-02-28T12:36:40;24.67;;;16.52;;
38318;SDS011;24121;53.536;10.224;2024-02-28T12:39:05;26.38;;;16.52;;
38318;SDS011;24121;53.536;10.224;2024-02-28T12:41:31;23.17;;;16.35;;
38318;SDS011;24121;53.536;10.224;2024-02-28T12:43:56;23.50;;;17.13;;
38318;SDS011;24121;53.536;10.224;2024-02-28T12:46:21;22.85;;;16.35;;
38318;SDS011;24121;53.536;10.224;2024-02-28T12:48:47;24.38;;;15.57;;
38318;SDS011;24121;53.536;10.224;2024-02-28T12:51:57;20.70;;;13.73;;
38318;SDS011;24121;53.536;10.224;2024-02-28T12:53:57;20.70;;;13.60;;
38318;SDS011;24121;53.536;10.224;2024-02-28T12:56:23;21.10;;;14.73;;
38318;SDS011;24121;53.536;10.224;2024-02-28T12:58:48;21.50;;;15.30;;
38318;SDS011;24121;53.536;10.224;2024-02-28T13:01:13;24.45;;;14.85;;
38318;SDS011;24121;53.536;10.224;2024-02-28T13:03:38;21.47;;;15.57;;
38318;SDS011;24121;53.536;10.224;2024-02-28T13:06:03;22.47;;;15.37;;
38318;SDS011;24121;53.536;10.224;2024-02-28T13:08:28;22.90;;;15.40;;
38318;SDS011;24121;53.536;10.224;2024-02-28T13:10:54;25.70;;;16.57;;
38318;SDS011;24121;53.536;10.224;2024-02-28T13:13:19;22.38;;;15.65;;
38318;SDS011;24121;53.536;10.224;2024-02-28T13:15:44;26.27;;;17.15;;
38318;SDS011;24121;53.536;10.224;2024-02-28T13:18:10;25.13;;;17.83;;
38318;SDS011;24121;53.536;10.224;2024-02-28T13:20:35;25.35;;;18.20;;
38318;SDS011;24121;53.536;10.224;2024-02-28T13:23:02;25.98;;;17.30;;
38318;SDS011;24121;53.536;10.224;2024-02-28T13:25:28;25.50;;;17.30;;
38318;SDS011;24121;53.536;10.224;2024-02-28T13:27:53;25.93;;;18.30;;
38318;SDS011;24121;53.536;10.224;2024-02-28T13:30:18;24.23;;;16.97;;
38318;SDS011;24121;53.536;10.224;2024-02-28T13:32:43;23.88;;;17.35;;
38318;SDS011;24121;53.536;10.224;2024-02-28T13:35:08;24.07;;;16.20;;
38318;SDS011;24121;53.536;10.224;2024-02-28T13:37:34;22.73;;;15.85;;
38318;SDS011;24121;53.536;10.224;2024-02-28T13:39:59;24.40;;;16.83;;
38318;SDS011;24121;53.536;10.224;2024-02-28T13:42:24;24.80;;;17.08;;
38318;SDS011;24121;53.536;10.224;2024-02-28T13:44:50;22.50;;;16.30;;
38318;SDS011;24121;53.536;10.224;2024-02-28T13:47:15;23.77;;;16.77;;
38318;SDS011;24121;53.536;10.224;2024-02-28T13:49:40;20.37;;;14.67;;
38318;SDS011;24121;53.536;10.224;2024-02-28T13:52:05;22.43;;;15.27;;
38318;SDS011;24121;53.536;10.224;2024-02-28T13:54:31;19.88;;;14.90;;
38318;SDS011;24121;53.536;10.224;2024-02-28T13:56:56;21.27;;;14.70;;
38318;SDS011;24121;53.536;10.224;2024-02-28T13:59:21;21.88;;;13.90;;
38318;SDS011;24121;53.536;10.224;2024-02-28T14:01:46;22.92;;;14.48;;
38318;SDS011;24121;53.536;10.224;2024-02-28T14:04:12;22.30;;;16.03;;
38318;SDS011;24121;53.536;10.224;2024-02-28T14:06:37;21.95;;;15.27;;
38318;SDS011;24121;53.536;10.224;2024-02-28T14:09:02;21.90;;;16.00;;
38318;SDS011;24121;53.536;10.224;2024-02-28T14:11:28;22.58;;;16.48;;
38318;SDS011;24121;53.536;10.224;2024-02-28T14:13:53;22.57;;;14.53;;
38318;SDS011;24121;53.536;10.224;2024-02-28T14:16:19;20.77;;;16.17;;
38318;SDS011;24121;53.536;10.224;2024-02-28T14:18:44;23.63;;;16.60;;
38318;SDS011;24121;53.536;10.224;2024-02-28T14:21:10;20.17;;;14.85;;
38318;SDS011;24121;53.536;10.224;2024-02-28T14:23:35;24.75;;;15.55;;
38318;SDS011;24121;53.536;10.224;2024-02-28T14:26:00;21.90;;;15.47;;
38318;SDS011;24121;53.536;10.224;2024-02-28T14:28:27;21.38;;;14.25;;
38318;SDS011;24121;53.536;10.224;2024-02-28T14:30:52;20.70;;;14.40;;
38318;SDS011;24121;53.536;10.224;2024-02-28T14:33:17;19.45;;;13.80;;
38318;SDS011;24121;53.536;10.224;2024-02-28T14:35:42;20.42;;;14.20;;
38318;SDS011;24121;53.536;10.224;2024-02-28T14:38:08;19.45;;;13.68;;
38318;SDS011;24121;53.536;10.224;2024-02-28T14:40:33;18.20;;;14.25;;
38318;SDS011;24121;53.536;10.224;2024-02-28T14:42:58;20.67;;;13.90;;
38318;SDS011;24121;53.536;10.224;2024-02-28T14:45:23;17.38;;;13.07;;
38318;SDS011;24121;53.536;10.224;2024-02-28T14:47:51;20.08;;;13.93;;
38318;SDS011;24121;53.536;10.224;2024-02-28T14:50:16;19.07;;;14.20;;
38318;SDS011;24121;53.536;10.224;2024-02-28T14:52:41;20.88;;;14.38;;
38318;SDS011;24121;53.536;10.224;2024-02-28T14:55:07;20.25;;;14.70;;
38318;SDS011;24121;53.536;10.224;2024-02-28T14:57:32;20.35;;;14.52;;
38318;SDS011;24121;53.536;10.224;2024-02-28T14:59:58;20.58;;;13.73;;
38318;SDS011;24121;53.536;10.224;2024-02-28T15:02:23;18.85;;;12.48;;
38318;SDS011;24121;53.536;10.224;2024-02-28T15:04:48;19.60;;;13.00;;
38318;SDS011;24121;53.536;10.224;2024-02-28T15:07:14;18.75;;;12.25;;
38318;SDS011;24121;53.536;10.224;2024-02-28T15:09:40;21.65;;;13.75;;
38318;SDS011;24121;53.536;10.224;2024-02-28T15:12:06;18.92;;;13.63;;
38318;SDS011;24121;53.536;10.224;2024-02-28T15:14:31;19.13;;;13.32;;
38318;SDS011;24121;53.536;10.224;2024-02-28T15:16:56;19.83;;;13.07;;
38318;SDS011;24121;53.536;10.224;2024-02-28T15:19:21;17.83;;;13.37;;
38318;SDS011;24121;53.536;10.224;2024-02-28T15:21:46;19.87;;;12.43;;
38318;SDS011;24121;53.536;10.224;2024-02-28T15:24:12;20.80;;;12.82;;
38318;SDS011;24121;53.536;10.224;2024-02-28T15:26:37;18.58;;;12.35;;
38318;SDS011;24121;53.536;10.224;2024-02-28T15:29:03;16.60;;;11.63;;
38318;SDS011;24121;53.536;10.224;2024-02-28T15:31:28;19.87;;;12.57;;
38318;SDS011;24121;53.536;10.224;2024-02-28T15:33:53;18.70;;;12.55;;
38318;SDS011;24121;53.536;10.224;2024-02-28T15:36:19;17.20;;;12.37;;
38318;SDS011;24121;53.536;10.224;2024-02-28T15:38:44;16.83;;;12.17;;
38318;SDS011;24121;53.536;10.224;2024-02-28T15:41:09;18.98;;;12.65;;
38318;SDS011;24121;53.536;10.224;2024-02-28T15:43:34;22.10;;;13.60;;
38318;SDS011;24121;53.536;10.224;2024-02-28T15:46:00;20.10;;;13.55;;
38318;SDS011;24121;53.536;10.224;2024-02-28T15:48:25;18.33;;;13.38;;
38318;SDS011;24121;53.536;10.224;2024-02-28T15:50:50;21.98;;;14.48;;
38318;SDS011;24121;53.536;10.224;2024-02-28T15:53:17;21.80;;;14.70;;
38318;SDS011;24121;53.536;10.224;2024-02-28T15:55:43;24.53;;;15.10;;
38318;SDS011;24121;53.536;10.224;2024-02-28T15:58:08;23.50;;;15.57;;
38318;SDS011;24121;53.536;10.224;2024-02-28T16:00:33;20.60;;;14.53;;
38318;SDS011;24121;53.536;10.224;2024-02-28T16:02:58;20.13;;;13.73;;
38318;SDS011;24121;53.536;10.224;2024-02-28T16:05:23;19.40;;;13.33;;
38318;SDS011;24121;53.536;10.224;2024-02-28T16:07:49;21.35;;;14.05;;
38318;SDS011;24121;53.536;10.224;2024-02-28T16:10:15;17.63;;;12.57;;
38318;SDS011;24121;53.536;10.224;2024-02-28T16:12:40;21.77;;;14.18;;
38318;SDS011;24121;53.536;10.224;2024-02-28T16:15:06;22.15;;;13.88;;
38318;SDS011;24121;53.536;10.224;2024-02-28T16:17:33;20.38;;;13.68;;
38318;SDS011;24121;53.536;10.224;2024-02-28T16:19:58;22.95;;;15.30;;
38318;SDS011;24121;53.536;10.224;2024-02-28T16:22:24;22.88;;;15.77;;
38318;SDS011;24121;53.536;10.224;2024-02-28T16:24:49;21.65;;;14.82;;
38318;SDS011;24121;53.536;10.224;2024-02-28T16:27:14;24.42;;;15.13;;
38318;SDS011;24121;53.536;10.224;2024-02-28T16:29:39;25.73;;;14.35;;
38318;SDS011;24121;53.536;10.224;2024-02-28T16:32:05;22.77;;;14.18;;
38318;SDS011;24121;53.536;10.224;2024-02-28T16:34:30;22.30;;;14.40;;
38318;SDS011;24121;53.536;10.224;2024-02-28T16:36:55;22.17;;;15.70;;
38318;SDS011;24121;53.536;10.224;2024-02-28T16:39:22;22.48;;;16.20;;
38318;SDS011;24121;53.536;10.224;2024-02-28T16:41:47;20.13;;;13.60;;
38318;SDS011;24121;53.536;10.224;2024-02-28T16:44:12;19.92;;;13.88;;
38318;SDS011;24121;53.536;10.224;2024-02-28T16:46:38;25.67;;;15.30;;
38318;SDS011;24121;53.536;10.224;2024-02-28T16:49:03;22.80;;;14.20;;
38318;SDS011;24121;53.536;10.224;2024-02-28T16:51:28;18.53;;;12.93;;
38318;SDS011;24121;53.536;10.224;2024-02-28T16:53:53;21.07;;;13.27;;
38318;SDS011;24121;53.536;10.224;2024-02-28T16:56:18;19.53;;;13.23;;
38318;SDS011;24121;53.536;10.224;2024-02-28T16:58:43;16.95;;;12.50;;
38318;SDS011;24121;53.536;10.224;2024-02-28T17:01:09;17.60;;;12.30;;
38318;SDS011;24121;53.536;10.224;2024-02-28T17:03:34;20.60;;;12.95;;
38318;SDS011;24121;53.536;10.224;2024-02-28T17:05:59;19.02;;;13.07;;
38318;SDS011;24121;53.536;10.224;2024-02-28T17:08:24;16.90;;;12.47;;
38318;SDS011;24121;53.536;10.224;2024-02-28T17:10:50;17.67;;;13.10;;
38318;SDS011;24121;53.536;10.224;2024-02-28T17:13:15;18.45;;;12.38;;
38318;SDS011;24121;53.536;10.224;2024-02-28T17:15:40;18.03;;;12.37;;
38318;SDS011;24121;53.536;10.224;2024-02-28T17:18:06;19.98;;;12.20;;
38318;SDS011;24121;53.536;10.224;2024-02-28T17:20:31;17.77;;;12.35;;
38318;SDS011;24121;53.536;10.224;2024-02-28T17:22:56;19.15;;;12.57;;
38318;SDS011;24121;53.536;10.224;2024-02-28T17:25:21;19.38;;;13.32;;
38318;SDS011;24121;53.536;10.224;2024-02-28T17:27:46;21.23;;;13.23;;
38318;SDS011;24121;53.536;10.224;2024-02-28T17:30:11;23.67;;;15.48;;
38318;SDS011;24121;53.536;10.224;2024-02-28T17:32:37;26.90;;;15.95;;
38318;SDS011;24121;53.536;10.224;2024-02-28T17:35:02;24.73;;;15.13;;
38318;SDS011;24121;53.536;10.224;2024-02-28T17:37:30;23.70;;;14.35;;
38318;SDS011;24121;53.536;10.224;2024-02-28T17:39:55;21.63;;;14.57;;
38318;SDS011;24121;53.536;10.224;2024-02-28T17:42:20;25.07;;;16.03;;
38318;SDS011;24121;53.536;10.224;2024-02-28T17:44:46;29.35;;;16.83;;
38318;SDS011;24121;53.536;10.224;2024-02-28T17:47:11;29.00;;;17.13;;
38318;SDS011;24121;53.536;10.224;2024-02-28T17:49:36;26.40;;;16.17;;
38318;SDS011;24121;53.536;10.224;2024-02-28T17:52:02;28.45;;;17.70;;
38318;SDS011;24121;53.536;10.224;2024-02-28T17:54:28;27.30;;;16.63;;
38318;SDS011;24121;53.536;10.224;2024-02-28T17:56:53;28.13;;;16.80;;
38318;SDS011;24121;53.536;10.224;2024-02-28T17:59:18;31.15;;;18.40;;
38318;SDS011;24121;53.536;10.224;2024-02-28T18:01:43;31.70;;;18.50;;
38318;SDS011;24121;53.536;10.224;2024-02-28T18:04:08;30.70;;;17.70;;
38318;SDS011;24121;53.536;10.224;2024-02-28T18:06:35;31.60;;;17.67;;
38318;SDS011;24121;53.536;10.224;2024-02-28T18:09:00;35.08;;;20.20;;
38318;SDS011;24121;53.536;10.224;2024-02-28T18:11:26;31.63;;;19.25;;
38318;SDS011;24121;53.536;10.224;2024-02-28T18:13:51;31.25;;;19.38;;
38318;SDS011;24121;53.536;10.224;2024-02-28T18:16:16;29.35;;;18.00;;
38318;SDS011;24121;53.536;10.224;2024-02-28T18:18:44;30.48;;;17.75;;
38318;SDS011;24121;53.536;10.224;2024-02-28T18:21:09;29.33;;;16.13;;
38318;SDS011;24121;53.536;10.224;2024-02-28T18:23:34;31.13;;;17.60;;
38318;SDS011;24121;53.536;10.224;2024-02-28T18:25:59;29.47;;;17.77;;
38318;SDS011;24121;53.536;10.224;2024-02-28T18:28:24;27.67;;;17.10;;
38318;SDS011;24121;53.536;10.224;2024-02-28T18:30:50;29.67;;;17.27;;
38318;SDS011;24121;53.536;10.224;2024-02-28T18:33:15;28.23;;;17.73;;
38318;SDS011;24121;53.536;10.224;2024-02-28T18:35:40;28.73;;;17.00;;
38318;SDS011;24121;53.536;10.224;2024-02-28T18:38:06;28.02;;;16.85;;
38318;SDS011;24121;53.536;10.224;2024-02-28T18:40:31;30.58;;;18.50;;
38318;SDS011;24121;53.536;10.224;2024-02-28T18:42:56;30.13;;;18.63;;
38318;SDS011;24121;53.536;10.224;2024-02-28T18:45:21;28.90;;;18.25;;
38318;SDS011;24121;53.536;10.224;2024-02-28T18:47:48;35.72;;;20.92;;
38318;SDS011;24121;53.536;10.224;2024-02-28T18:50:13;30.10;;;19.27;;
38318;SDS011;24121;53.536;10.224;2024-02-28T18:52:38;36.57;;;21.67;;
38318;SDS011;24121;53.536;10.224;2024-02-28T18:55:04;36.60;;;21.27;;
38318;SDS011;24121;53.536;10.224;2024-02-28T18:57:29;31.90;;;18.23;;
38318;SDS011;24121;53.536;10.224;2024-02-28T18:59:54;27.67;;;16.92;;
38318;SDS011;24121;53.536;10.224;2024-02-28T19:02:20;25.97;;;15.83;;
38318;SDS011;24121;53.536;10.224;2024-02-28T19:04:45;26.83;;;15.93;;
38318;SDS011;24121;53.536;10.224;2024-02-28T19:07:10;29.25;;;15.57;;
38318;SDS011;24121;53.536;10.224;2024-02-28T19:09:36;24.85;;;15.25;;
38318;SDS011;24121;53.536;10.224;2024-02-28T19:12:01;27.55;;;16.38;;
38318;SDS011;24121;53.536;10.224;2024-02-28T19:14:26;30.23;;;16.97;;
38318;SDS011;24121;53.536;10.224;2024-02-28T19:16:51;27.13;;;16.17;;
38318;SDS011;24121;53.536;10.224;2024-02-28T19:19:16;27.87;;;15.40;;
38318;SDS011;24121;53.536;10.224;2024-02-28T19:21:42;25.92;;;15.05;;
38318;SDS011;24121;53.536;10.224;2024-02-28T19:24:07;23.20;;;14.03;;
38318;SDS011;24121;53.536;10.224;2024-02-28T19:26:32;27.58;;;15.05;;
38318;SDS011;24121;53.536;10.224;2024-02-28T19:28:58;24.17;;;13.93;;
38318;SDS011;24121;53.536;10.224;2024-02-28T19:31:23;24.65;;;14.05;;
38318;SDS011;24121;53.536;10.224;2024-02-28T19:33:48;24.25;;;14.02;;
38318;SDS011;24121;53.536;10.224;2024-02-28T19:36:14;21.13;;;14.00;;
38318;SDS011;24121;53.536;10.224;2024-02-28T19:38:39;25.73;;;14.10;;
38318;SDS011;24121;53.536;10.224;2024-02-28T19:41:04;23.47;;;13.23;;
38318;SDS011;24121;53.536;10.224;2024-02-28T19:43:29;25.83;;;15.05;;
38318;SDS011;24121;53.536;10.224;2024-02-28T19:45:56;26.25;;;13.98;;
38318;SDS011;24121;53.536;10.224;2024-02-28T19:48:22;25.73;;;14.50;;
38318;SDS011;24121;53.536;10.224;2024-02-28T19:50:47;22.73;;;14.37;;
38318;SDS011;24121;53.536;10.224;2024-02-28T19:53:12;24.60;;;14.40;;
38318;SDS011;24121;53.536;10.224;2024-02-28T19:55:37;23.48;;;13.93;;
38318;SDS011;24121;53.536;10.224;2024-02-28T19:58:02;21.90;;;13.20;;
38318;SDS011;24121;53.536;10.224;2024-02-28T20:00:28;23.00;;;14.10;;
38318;SDS011;24121;53.536;10.224;2024-02-28T20:02:53;21.10;;;13.10;;
38318;SDS011;24121;53.536;10.224;2024-02-28T20:05:19;19.00;;;11.10;;
38318;SDS011;24121;53.536;10.224;2024-02-28T20:07:44;15.20;;;9.57;;
38318;SDS011;24121;53.536;10.224;2024-02-28T20:10:09;15.20;;;9.73;;
38318;SDS011;24121;53.536;10.224;2024-02-28T20:12:35;16.90;;;10.32;;
38318;SDS011;24121;53.536;10.224;2024-02-28T20:15:01;14.53;;;9.70;;
38318;SDS011;24121;53.536;10.224;2024-02-28T20:17:26;14.60;;;9.23;;
38318;SDS011;24121;53.536;10.224;2024-02-28T20:19:51;14.23;;;9.57;;
38318;SDS011;24121;53.536;10.224;2024-02-28T20:22:16;19.08;;;11.73;;
38318;SDS011;24121;53.536;10.224;2024-02-28T20:24:42;20.00;;;12.40;;
38318;SDS011;24121;53.536;10.224;2024-02-28T20:27:07;26.00;;;15.13;;
38318;SDS011;24121;53.536;10.224;2024-02-28T20:29:33;26.92;;;15.57;;
38318;SDS011;24121;53.536;10.224;2024-02-28T20:31:58;27.58;;;16.05;;
38318;SDS011;24121;53.536;10.224;2024-02-28T20:34:23;24.80;;;15.90;;
38318;SDS011;24121;53.536;10.224;2024-02-28T20:36:48;25.73;;;16.02;;
38318;SDS011;24121;53.536;10.224;2024-02-28T20:39:14;27.13;;;16.37;;
38318;SDS011;24121;53.536;10.224;2024-02-28T20:41:39;28.98;;;16.35;;
38318;SDS011;24121;53.536;10.224;2024-02-28T20:44:04;28.10;;;16.65;;
38318;SDS011;24121;53.536;10.224;2024-02-28T20:46:30;26.60;;;15.25;;
38318;SDS011;24121;53.536;10.224;2024-02-28T20:48:55;25.17;;;14.63;;
38318;SDS011;24121;53.536;10.224;2024-02-28T20:51:21;26.08;;;15.80;;
38318;SDS011;24121;53.536;10.224;2024-02-28T20:53:46;28.83;;;16.37;;
38318;SDS011;24121;53.536;10.224;2024-02-28T20:56:18;29.23;;;16.23;;
38318;SDS011;24121;53.536;10.224;2024-02-28T20:58:43;29.45;;;16.25;;
38318;SDS011;24121;53.536;10.224;2024-02-28T21:01:08;30.23;;;15.82;;
38318;SDS011;24121;53.536;10.224;2024-02-28T21:03:34;29.90;;;16.75;;
38318;SDS011;24121;53.536;10.224;2024-02-28T21:05:59;26.50;;;15.88;;
38318;SDS011;24121;53.536;10.224;2024-02-28T21:08:24;30.03;;;17.33;;
38318;SDS011;24121;53.536;10.224;2024-02-28T21:10:50;27.38;;;15.80;;
38318;SDS011;24121;53.536;10.224;2024-02-28T21:13:15;31.30;;;16.47;;
38318;SDS011;24121;53.536;10.224;2024-02-28T21:15:40;28.50;;;15.75;;
38318;SDS011;24121;53.536;10.224;2024-02-28T21:18:05;28.60;;;16.33;;
38318;SDS011;24121;53.536;10.224;2024-02-28T21:20:30;31.02;;;16.90;;
38318;SDS011;24121;53.536;10.224;2024-02-28T21:22:56;25.93;;;15.87;;